Map

Track Data

SID SEASON NUMBER BASIN SUBBASIN NAME ISO_TIME NATURE LAT LON WMO_WIND WMO_PRES WMO_AGENCY TRACK_TYPE DIST2LAND LANDFALL IFLAG USA_AGENCY USA_ATCF_ID USA_LAT USA_LON USA_RECORD USA_STATUS USA_WIND USA_PRES USA_SSHS USA_R34_NE USA_R34_SE USA_R34_SW USA_R34_NW USA_R50_NE USA_R50_SE USA_R50_SW USA_R50_NW USA_R64_NE USA_R64_SE USA_R64_SW USA_R64_NW USA_POCI USA_ROCI USA_RMW USA_EYE TOKYO_LAT TOKYO_LON TOKYO_GRADE TOKYO_WIND TOKYO_PRES TOKYO_R50_DIR TOKYO_R50_LONG TOKYO_R50_SHORT TOKYO_R30_DIR TOKYO_R30_LONG TOKYO_R30_SHORT TOKYO_LAND CMA_LAT CMA_LON CMA_CAT CMA_WIND CMA_PRES HKO_LAT HKO_LON HKO_CAT HKO_WIND HKO_PRES NEWDELHI_LAT NEWDELHI_LON NEWDELHI_GRADE NEWDELHI_WIND NEWDELHI_PRES NEWDELHI_CI NEWDELHI_DP NEWDELHI_POCI REUNION_LAT REUNION_LON REUNION_TYPE REUNION_WIND REUNION_PRES REUNION_TNUM REUNION_CI REUNION_RMW REUNION_R34_NE REUNION_R34_SE REUNION_R34_SW REUNION_R34_NW REUNION_R50_NE REUNION_R50_SE REUNION_R50_SW REUNION_R50_NW REUNION_R64_NE REUNION_R64_SE REUNION_R64_SW REUNION_R64_NW BOM_LAT BOM_LON BOM_TYPE BOM_WIND BOM_PRES BOM_TNUM BOM_CI BOM_RMW BOM_R34_NE BOM_R34_SE BOM_R34_SW BOM_R34_NW BOM_R50_NE BOM_R50_SE BOM_R50_SW BOM_R50_NW BOM_R64_NE BOM_R64_SE BOM_R64_SW BOM_R64_NW BOM_ROCI BOM_POCI BOM_EYE BOM_POS_METHOD BOM_PRES_METHOD NADI_LAT NADI_LON NADI_CAT NADI_WIND NADI_PRES WELLINGTON_LAT WELLINGTON_LON WELLINGTON_WIND WELLINGTON_PRES DS824_LAT DS824_LON DS824_STAGE DS824_WIND DS824_PRES TD9636_LAT TD9636_LON TD9636_STAGE TD9636_WIND TD9636_PRES TD9635_LAT TD9635_LON TD9635_WIND TD9635_PRES TD9635_ROCI NEUMANN_LAT NEUMANN_LON NEUMANN_CLASS NEUMANN_WIND NEUMANN_PRES MLC_LAT MLC_LON MLC_CLASS MLC_WIND MLC_PRES USA_GUST BOM_GUST BOM_GUST_PER REUNION_GUST REUNION_GUST_PER USA_SEAHGT USA_SEARAD_NE USA_SEARAD_SE USA_SEARAD_SW USA_SEARAD_NW STORM_SPEED STORM_DIR
1952251N11139 1952 64 WP MM NOT_NAMED 1952-09-06 18:00:00 TS 11.3000 138.600 main 1376 1290 ______________ -1 16 267
1952251N11139 1952 64 WP MM NOT_NAMED 1952-09-06 21:00:00 TS 11.2630 137.782 main 1290 1207 ______________ -1 16 274
1952251N11139 1952 64 WP MM NOT_NAMED 1952-09-07 00:00:00 TS 11.4000 137.000 main 1207 1142 ______________ -1 16 291
1952251N11139 1952 64 WP MM NOT_NAMED 1952-09-07 03:00:00 TS 11.8248 136.278 main 1142 1032 ______________ -1 24 308
1952251N11139 1952 64 WP MM NOT_NAMED 1952-09-07 06:00:00 TS 12.8714 135.086 main 1034 970 O________O_O__ jtwc_wp WP121952 13.5000 134.400 30 -1 13.5000 134.400 TC 30 13.5000 134.400 30 1004 300 24 308
1952251N11139 1952 64 WP MM NOT_NAMED 1952-09-07 09:00:00 TS 13.3114 134.332 main 959 901 P________P_P__ WP121952 13.5526 133.915 30 -1 13.5526 133.915 TC 30 13.5526 133.915 30 1004 330 16 297
1952251N11139 1952 64 WP MM NOT_NAMED 1952-09-07 12:00:00 TS 13.5714 133.657 main 902 830 O________OOO__ jtwc_wp WP121952 13.6000 133.400 30 -1 13.6000 133.400 TC 30 13.6000 133.400 1 30 13.6000 133.400 30 1004 360 14 288
1952251N11139 1952 64 WP MM NOT_NAMED 1952-09-07 15:00:00 TS 13.7447 132.999 main 830 774 P________PPP__ WP121952 13.6550 132.842 30 -1 13.6550 132.842 TC 30 13.7420 132.852 1 30 13.6550 132.842 30 1004 390 13 288
1952251N11139 1952 64 WP MM NOT_NAMED 1952-09-07 18:00:00 TS 13.9658 132.409 main 774 728 O________OPO__ jtwc_wp WP121952 13.8000 132.300 30 -1 13.8000 132.300 TC 30 13.9167 132.323 1 30 13.8000 132.300 30 1004 420 12 296
1952251N11139 1952 64 WP MM NOT_NAMED 1952-09-07 21:00:00 TS 14.2680 131.894 main 731 702 P________PPP__ WP121952 14.0824 131.820 30 -1 14.0824 131.820 TC 30 14.1579 131.833 1 30 14.0824 131.820 30 1004 420 12 307
1952251N11139 1952 64 WP MM NOT_NAMED 1952-09-08 00:00:00 TS 14.6800 131.440 main 697 681 O________OOO__ jtwc_wp WP121952 14.5000 131.400 30 -1 14.5000 131.400 TC 30 14.5000 131.400 1 30 14.5000 131.400 30 1004 420 13 318
1952251N11139 1952 64 WP MM NOT_NAMED 1952-09-08 03:00:00 TS 15.1974 131.032 main 682 678 P________PPP__ WP121952 15.0123 131.042 30 -1 15.0123 131.042 TC 30 14.9652 131.033 1 30 15.0123 131.042 30 1004 420 14 325
1952251N11139 1952 64 WP MM NOT_NAMED 1952-09-08 06:00:00 TS 15.7857 130.639 main 682 680 O________OPO__ jtwc_wp WP121952 15.6000 130.700 30 -1 15.6000 130.700 TC 30 15.5285 130.693 1 30 15.6000 130.700 30 1004 420 14 327
1952251N11139 1952 64 WP MM NOT_NAMED 1952-09-08 09:00:00 TS 16.3773 130.237 main 682 669 P________PPP__ WP121952 16.1921 130.352 30 -1 16.1921 130.352 TC 30 16.1525 130.332 1 30 16.1921 130.352 30 1003 420 15 325
1952251N11139 1952 64 WP MM NOT_NAMED 1952-09-08 12:00:00 TS 16.9800 129.760 main 674 653 O________OOO__ jtwc_wp WP121952 16.8000 129.900 30 -1 16.8000 129.900 TC 30 16.8000 129.900 1 30 16.8000 129.900 30 1003 420 16 318
1952251N11139 1952 64 WP MM NOT_NAMED 1952-09-08 15:00:00 TS 17.5714 129.127 main 651 641 P________PPP__ WP121952 17.3928 129.230 30 -1 17.3928 129.230 TC 30 17.4064 129.353 1 30 17.3928 129.230 30 1002 360 17 313
1952251N11139 1952 64 WP MM NOT_NAMED 1952-09-08 18:00:00 TS 18.1654 128.445 main 639 591 O________OPO__ jtwc_wp WP121952 18.0000 128.500 30 -1 18.0000 128.500 TC 30 18.0271 128.726 1 30 18.0000 128.500 30 1002 300 17 314
1952251N11139 1952 64 WP MM NOT_NAMED 1952-09-08 21:00:00 TS 18.7659 127.846 main 581 535 P________PPP__ WP121952 18.6493 127.914 30 -1 18.6493 127.914 TC 30 18.6592 128.036 1 30 18.6493 127.914 30 1001 300 17 316
1952251N11139 1952 64 WP MM NOT_NAMED 1952-09-09 00:00:00 TS 19.3600 127.220 main 527 471 O________OOO__ jtwc_wp WP121952 19.3000 127.300 30 -1 19.3000 127.300 TC 30 19.3000 127.300 1 30 19.3000 127.300 30 1001 300 17 312
1952251N11139 1952 64 WP MM NOT_NAMED 1952-09-09 03:00:00 TS 19.9374 126.477 main 471 426 P________PPP__ WP121952 19.8925 126.529 30 -1 19.8925 126.529 TC 30 20.0169 126.497 1 30 19.8925 126.529 30 1001 270 19 309
1952251N11139 1952 64 WP MM NOT_NAMED 1952-09-09 06:00:00 TS 20.5258 125.692 main 426 406 O________OPO__ jtwc_wp WP121952 20.5000 125.700 30 -1 20.5000 125.700 TC 30 20.7292 125.660 1 30 20.5000 125.700 30 1001 240 19 310
1952251N11139 1952 64 WP MM NOT_NAMED 1952-09-09 09:00:00 TS 21.1849 124.907 main 414 322 P________PPP__ WP121952 21.2302 124.848 30 -1 21.2302 124.848 TC 30 21.3766 124.841 1 30 21.2302 124.848 30 1001 210 19 312
1952251N11139 1952 64 WP MM NOT_NAMED 1952-09-09 12:00:00 TS 21.7800 124.200 main 322 256 O________OOO__ jtwc_wp WP121952 21.9000 124.100 30 -1 21.9000 124.100 TC 30 21.9000 124.100 1 30 21.9000 124.100 30 1001 180 16 312
1952251N11139 1952 64 WP MM NOT_NAMED 1952-09-09 15:00:00 TS 22.2312 123.655 main 256 196 P________PPP__ WP121952 22.4042 123.612 30 -1 22.4042 123.612 TC 30 22.3015 123.418 1 30 22.4042 123.612 30 1000 150 12 308
1952251N11139 1952 64 WP MM NOT_NAMED 1952-09-09 18:00:00 TS 22.5338 123.167 main 196 130 O________OPO__ jtwc_wp WP121952 22.7000 123.200 30 -1 22.7000 123.200 TC 30 22.5689 122.835 1 30 22.7000 123.200 30 1000 120 11 296
1952251N11139 1952 64 WP MM NOT_NAMED 1952-09-09 21:00:00 TS 22.7206 122.566 main 130 79 P________PPP__ WP121952 22.8055 122.574 30 -1 22.8055 122.574 TC 30 22.7019 122.384 1 30 22.8055 122.574 30 1000 90 10 283
1952251N11139 1952 64 WP MM NOT_NAMED 1952-09-10 00:00:00 TS 22.7600 122.080 main 79 67 O________OOO__ jtwc_wp WP121952 22.7000 122.100 30 -1 22.7000 122.100 TC 30 22.7000 122.100 1 30 22.7000 122.100 30 1000 60 6 264
1952251N11139 1952 64 WP MM NOT_NAMED 1952-09-10 03:00:00 TS 22.6588 121.874 main 67 67 P________PPP__ WP121952 22.4297 122.053 27 -1 22.4297 122.053 TC 27 22.5700 121.964 1 28 22.4297 122.053 27 1000 120 4 223
1952251N11139 1952 64 WP MM NOT_NAMED 1952-09-10 06:00:00 TS 22.5037 121.819 main 75 68 O________OPO__ jtwc_wp WP121952 22.1000 122.200 25 -1 22.1000 122.200 TC 25 22.3185 121.994 1 27 22.1000 122.200 25 1000 180 3 209
1952251N11139 1952 64 WP MM NOT_NAMED 1952-09-10 09:00:00 TS 22.4356 121.740 main 75 75 P________PPP__ WP121952 21.9074 122.270 25 -1 21.9074 122.270 TC 25 22.0078 122.152 1 26 21.9074 122.270 25 1000 180 3 170
1952251N11139 1952 64 WP MM NOT_NAMED 1952-09-10 12:00:00 TS 22.2368 121.879 main 102 102 O________OOO__ jtwc_wp WP121952 21.7000 122.400 25 -1 21.7000 122.400 TC 25 21.7000 122.400 1 25 21.7000 122.400 25 1000 180 7 144
1952251N11139 1952 64 WP MM NOT_NAMED 1952-09-10 15:00:00 TS 21.8473 122.210 main 134 134 P________PPP__ WP121952 21.3274 122.598 25 -1 21.3274 122.598 TC 25 21.3972 122.810 1 25 21.3274 122.598 25 1000 180 12 138
1952251N11139 1952 64 WP MM NOT_NAMED 1952-09-10 18:00:00 TS 21.3638 122.723 main 194 194 O________OPO__ jtwc_wp WP121952 21.0000 122.900 25 -1 21.0000 122.900 TC 25 21.1210 123.273 1 25 21.0000 122.900 25 1000 180 16 128
1952251N11139 1952 64 WP MM NOT_NAMED 1952-09-10 21:00:00 TS 20.8755 123.523 main 291 291 P________PPP__ WP121952 20.8229 123.440 25 -1 20.8229 123.440 TC 25 20.9340 123.649 1 25 20.8229 123.440 25 999 180 11 111
1952251N11139 1952 64 WP MM NOT_NAMED 1952-09-11 00:00:00 TS 20.9778 123.778 main 316 284 O_O______OOO__ jtwc_wp WP121952 20.9000 123.800 25 -1 21.6000 123.600 2 38 998 20.9000 123.800 TC 25 20.9000 123.800 1 25 20.9000 123.800 25 999 180 5 0
1952251N11139 1952 64 WP MM NOT_NAMED 1952-09-11 03:00:00 TS 21.3823 123.526 main 274 216 P_P______PPP__ WP121952 21.3622 123.616 30 -1 21.8277 123.118 2 43 996 21.3622 123.616 TC 30 21.0923 123.553 1 27 21.3622 123.616 30 998 150 11 320
1952251N11139 1952 64 WP MM NOT_NAMED 1952-09-11 06:00:00 TS 21.8472 122.994 main 216 151 O_O______OPO__ jtwc_wp WP121952 21.9000 123.100 35 0 22.1000 122.600 3 48 995 21.9000 123.100 TC 35 21.4360 123.071 1 30 21.9000 123.100 35 998 120 13 306
1952251N11139 1952 64 WP MM NOT_NAMED 1952-09-11 09:00:00 TS 22.1479 122.392 main 151 83 P_P______PPP__ WP121952 22.1452 122.495 35 0 22.4424 122.023 3 48 995 22.1452 122.495 TC 35 21.8614 122.454 1 32 22.1452 122.495 35 997 120 13 295
1952251N11139 1952 64 WP MM NOT_NAMED 1952-09-11 12:00:00 TS 22.4000 121.720 main 75 10 O_O______OOO__ jtwc_wp WP121952 22.3000 121.800 35 0 22.8000 121.400 3 48 995 22.3000 121.800 TC 35 22.3000 121.800 2 35 22.3000 121.800 35 997 120 13 292
1952251N11139 1952 64 WP MM NOT_NAMED 1952-09-11 15:00:00 TS 22.6338 121.075 main 10 0 P_P______PPP__ WP121952 22.4551 121.119 35 0 23.1299 120.750 3 48 995 22.4551 121.119 TC 35 22.6740 121.264 2 35 22.4551 121.119 35 996 120 13 294
1952251N11139 1952 64 WP MM NOT_NAMED 1952-09-11 18:00:00 TS 22.9089 120.463 main 0 0 O_O______OPO__ jtwc_wp WP121952 22.7000 120.500 35 0 23.4000 120.100 3 48 995 22.7000 120.500 TC 35 23.0445 120.715 2 35 22.7000 120.500 35 995 120 12 303
1952251N11139 1952 64 WP MM NOT_NAMED 1952-09-11 21:00:00 TS 23.3038 119.936 main 23 23 P_P______PPP__ WP121952 23.1771 120.013 35 0 23.5948 119.485 3 53 992 23.1771 120.013 TC 35 23.3927 120.158 2 35 23.1771 120.013 35 995 150 12 311
1952251N11139 1952 64 WP MM NOT_NAMED 1952-09-12 00:00:00 TS 23.7000 119.460 main 62 62 O_O______OOO__ jtwc_wp WP121952 23.7000 119.600 35 0 23.7000 118.900 3 58 990 23.7000 119.600 TC 35 23.7000 119.600 2 35 23.7000 119.600 35 995 180 11 311
1952251N11139 1952 64 WP MM NOT_NAMED 1952-09-12 03:00:00 TS 24.0187 119.027 main 69 33 P_P______PPP__ WP121952 24.1169 119.237 35 0 23.7520 118.358 3 58 990 24.1169 119.237 TC 35 23.9908 119.066 2 35 24.1169 119.237 35 996 180 10 302
1952251N11139 1952 64 WP MM NOT_NAMED 1952-09-12 06:00:00 TS 24.2267 118.546 main 35 0 O_O______OPO__ jtwc_wp WP121952 24.4000 118.800 35 0 23.7000 117.800 3 58 990 24.4000 118.800 TC 35 24.2335 118.531 2 35 24.4000 118.800 35 997 180 11 285
1952251N11139 1952 64 WP MM NOT_NAMED 1952-09-12 09:00:00 TS 24.3001 117.902 main 0 0 P_P______PPP__ WP121952 24.5253 118.137 35 0 23.5154 117.119 3 53 992 24.5253 118.137 TC 35 24.4094 117.979 2 35 24.5253 118.137 35 997 180 12 272
1952251N11139 1952 64 WP MM NOT_NAMED 1952-09-12 12:00:00 TS 24.2600 117.220 main 0 0 O_O______OOO__ jtwc_wp WP121952 24.5000 117.400 35 0 23.3000 116.500 3 48 995 24.5000 117.400 TC 35 24.5000 117.400 2 35 24.5000 117.400 35 997 180 12 263
1952251N11139 1952 64 WP MM NOT_NAMED 1952-09-12 15:00:00 TS 24.1565 116.617 main 0 0 P_P______PPP__ WP121952 24.3646 116.742 35 0 23.1769 116.128 3 43 995 24.3646 116.742 TC 35 24.5115 116.733 2 35 24.3646 116.742 35 997 210 11 258
1952251N11139 1952 64 WP MM NOT_NAMED 1952-09-12 18:00:00 TS 24.0273 116.029 main 0 0 O_O______OPO__ jtwc_wp WP121952 24.2000 116.100 35 0 23.1000 115.800 2 38 995 24.2000 116.100 TC 35 24.4364 116.046 2 35 24.2000 116.100 35 997 240 11 260
1952251N11139 1952 64 WP MM NOT_NAMED 1952-09-12 21:00:00 TS 23.9632 115.387 main 0 0 P_P______PPP__ WP121952 24.1576 115.413 35 0 23.0502 115.308 2 33 995 24.1576 115.413 TC 35 24.2929 115.386 2 35 24.1576 115.413 35 996 210 11 263
1952251N11139 1952 64 WP MM NOT_NAMED 1952-09-13 00:00:00 TS 23.8800 114.800 main 0 0 O_O______OOO__ jtwc_wp WP121952 24.1000 114.800 35 0 23.0000 114.800 1 29 996 24.1000 114.800 TC 35 24.1000 114.800 2 35 24.1000 114.800 35 996 180 10 256
1952251N11139 1952 64 WP MM NOT_NAMED 1952-09-13 03:00:00 TS 23.7278 114.354 main 0 0 P_P______PPP__ WP121952 23.9371 114.355 37 0 22.9073 114.385 1 29 996 23.9371 114.355 TC 37 23.9204 114.318 2 35 23.9371 114.355 37 995 180 8 244
1952251N11139 1952 64 WP MM NOT_NAMED 1952-09-13 06:00:00 TS 23.5192 113.983 main 0 0 O_O______OPO__ jtwc_wp WP121952 23.7000 114.000 40 0 22.8000 114.000 1 29 996 23.7000 114.000 TC 40 23.6962 113.915 2 35 23.7000 114.000 40 995 180 8 237
1952251N11139 1952 64 WP MM NOT_NAMED 1952-09-13 09:00:00 TS 23.2843 113.604 main 0 0 P_P______PPP__ WP121952 23.4300 113.612 37 0 22.7074 113.600 1 29 997 23.4300 113.612 TC 37 23.4239 113.580 2 35 23.4300 113.612 37 996 180 8 231
1952251N11139 1952 64 WP MM NOT_NAMED 1952-09-13 12:00:00 TS 23.0000 113.280 main 0 0 O_O______OOO__ jtwc_wp WP121952 23.1000 113.300 35 0 22.6000 113.200 1 29 998 23.1000 113.300 TC 35 23.1000 113.300 2 35 23.1000 113.300 35 997 180 8 219
1952251N11139 1952 64 WP MM NOT_NAMED 1952-09-13 15:00:00 TS 22.6696 113.055 main 0 0 P_P______PPP__ WP121952 22.7223 113.135 32 -1 22.4573 112.808 1 26 998 22.7223 113.135 TC 32 22.7235 113.062 2 32 22.7223 113.135 32 998 180 8 211
1952251N11139 1952 64 WP MM NOT_NAMED 1952-09-13 18:00:00 TS 22.3010 112.823 main 0 0 O_O______OPO__ jtwc_wp WP121952 22.3000 113.000 30 -1 22.3000 112.400 1 23 998 22.3000 113.000 TC 30 22.3055 112.857 2 30 22.3000 113.000 30 1000 180 9 216
1952251N11139 1952 64 WP MM NOT_NAMED 1952-09-13 21:00:00 TS 21.9517 112.488 main 0 0 P_P______PPP__ WP121952 21.8552 112.779 27 -1 22.1424 111.958 1 23 998 21.8552 112.779 TC 27 21.8597 112.673 2 27 21.8552 112.779 27 1001 180 10 232
1952251N11139 1952 64 WP MM NOT_NAMED 1952-09-14 00:00:00 TS 21.7000 112.000 main 10 0 O_O______OOO__ jtwc_wp WP121952 21.4000 112.500 25 -1 22.0000 111.500 1 23 998 21.4000 112.500 TC 25 21.4000 112.500 1 25 21.4000 112.500 25 1002 180 13 267
1952251N11139 1952 64 WP MM NOT_NAMED 1952-09-14 03:00:00 TS 21.8924 111.050 main 0 0 __P___________ WP121952 -1 21.8924 111.050 1 21 998 TC 1 13 274
1952251N11139 1952 64 WP MM NOT_NAMED 1952-09-14 06:00:00 TS 21.8000 110.600 main 0 0 __O___________ -1 21.8000 110.600 0 19 998 1 9 258
1952251N11139 1952 64 WP MM NOT_NAMED 1952-09-14 09:00:00 TS 21.7224 110.150 main 0 0 __P___________ -1 21.7224 110.150 0 19 999 1 9 257
1952251N11139 1952 64 WP MM NOT_NAMED 1952-09-14 12:00:00 TS 21.6000 109.700 main 0 0 __O___________ -1 21.6000 109.700 0 19 1000 9 247
1952251N11139 1952 64 WP MM NOT_NAMED 1952-09-14 15:00:00 TS 21.3649 109.250 main 0 0 __P___________ -1 21.3649 109.250 0 19 1000 10 239
1952251N11139 1952 64 WP MM NOT_NAMED 1952-09-14 18:00:00 TS 21.1000 108.800 main 53 53 __O___________ -1 21.1000 108.800 0 19 1000 10 240
1952251N11139 1952 64 WP MM NOT_NAMED 1952-09-14 21:00:00 TS 20.8849 108.350 main 70 61 __P___________ -1 20.8849 108.350 0 1000 9 245
1952251N11139 1952 64 WP MM NOT_NAMED 1952-09-15 00:00:00 TS 20.7000 107.900 main 61 45 __O___________ -1 20.7000 107.900 0 1000 9 248
1952251N11139 1952 64 WP MM NOT_NAMED 1952-09-15 03:00:00 TS 20.5350 107.428 main 49 39 __P___________ -1 20.5350 107.428 0 1000 9 250
1952251N11139 1952 64 WP MM NOT_NAMED 1952-09-15 06:00:00 TS 20.4000 107.000 main 39 10 __O___________ -1 20.4000 107.000 0 1000 8 251
1952251N11139 1952 64 WP MM NOT_NAMED 1952-09-15 09:00:00 TS 20.2925 106.670 main 10 0 __P___________ -1 20.2925 106.670 0 1001 6 250
1952251N11139 1952 64 WP MM NOT_NAMED 1952-09-15 12:00:00 TS 20.2000 106.400 main 0 __O___________ -1 20.2000 106.400 0 1002 5 250

Digital Typhoon Data and Search

About IBTrACS Database

This database is a web-friendly format of International Best Track Archive for Climate Stewardship (IBTrACS), a global best track data archive curated by NOAA dating back to 1842.

Updated: 2021-10-21